| Date | Time | Temp. (oF) | Dew Point (oF) | Rel. Hum. (%) | Press. (in.) | Wind Dir. | Wind Speed (mph) | Hourly Rainfall (in.) |
|
|---|---|---|---|---|---|---|---|---|---|
| 1 | miss | miss | miss | miss | miss | miss | miss | miss | |
| 2 | 03/22 | 21:57 | 24 | 11 | 59 | 30.19 | SW | 6 | 0.00 |
| 3 | 03/22 | 21:57 | 24 | 11 | 59 | 30.19 | SW | 6 | 0.00 |
| 4 | 03/22 | 21:00 | 25 | 11 | 56 | 30.19 | W | 3 | 0.00 |
| 5 | 03/22 | 20:00 | 26 | 9 | 50 | 30.17 | WNW | 5 | 0.00 |
| 6 | 03/22 | 19:00 | 27 | 9 | 47 | 30.13 | WNW | 7 | 0.00 |
| 7 | 03/22 | 18:00 | 28 | 7 | 42 | 30.11 | WNW | 7 | 0.00 |
| 8 | 03/22 | 17:00 | 29 | 7 | 39 | 30.08 | W | 10 | 0.00 |
| 9 | 03/22 | 16:00 | 30 | 8 | 40 | 30.07 | NW | 8 | 0.00 |
| 10 | 03/22 | 15:00 | 30 | 8 | 40 | 30.07 | WSW | 11 | 0.00 |
| 11 | 03/22 | 14:00 | 31 | 12 | 45 | 30.08 | WSW | 14 | 0.00 |
| 12 | 03/22 | 13:00 | 30 | 10 | 43 | 30.10 | SW | 25 | 0.00 |
| 13 | 03/22 | 12:00 | 29 | 7 | 40 | 30.12 | W | 7 | 0.00 |
| 14 | 03/22 | 11:00 | 26 | 4 | 40 | 30.15 | WNW | 13 | 0.00 |
| 15 | 03/22 | 10:00 | 25 | 4 | 41 | 30.16 | WNW | 20 | 0.00 |
| 16 | 03/22 | 09:00 | 24 | 4 | 43 | 30.17 | NW | 18 | 0.00 |
| 17 | 03/22 | 08:00 | 23 | 6 | 48 | 30.16 | NW | 11 | 0.00 |
| 18 | 03/22 | 07:00 | 20 | 5 | 52 | 30.15 | WNW | 9 | 0.00 |
| 19 | 03/22 | 06:00 | 19 | 4 | 53 | 30.14 | W | 16 | 0.00 |
| 20 | 03/22 | 05:00 | 20 | 3 | 49 | 30.13 | NW | 8 | 0.00 |
| 21 | 03/22 | 04:00 | 20 | 2 | 46 | 30.11 | NW | 12 | 0.00 |
| 22 | 03/22 | 03:00 | 21 | 2 | 44 | 30.09 | NW | 7 | 0.00 |
| 23 | 03/22 | 02:00 | 22 | 3 | 44 | 30.06 | NNW | 13 | 0.00 |
| 24 | 03/22 | 01:00 | 25 | 6 | 44 | 30.02 | NW | 19 | 0.00 |